sensor_id;sensor_type;location;lat;lon;timestamp;pressure;altitude;pressure_sealevel;temperature;humidity
15604;BME280;7902;49.042;9.092;2023-06-01T00:00:25;99257.94;;;21.39;40.12
15604;BME280;7902;49.042;9.092;2023-06-01T00:02:51;99258.00;;;21.31;39.90
15604;BME280;7902;49.042;9.092;2023-06-01T00:05:17;99257.69;;;21.26;40.31
15604;BME280;7902;49.042;9.092;2023-06-01T00:07:43;99254.03;;;21.27;40.45
15604;BME280;7902;49.042;9.092;2023-06-01T00:10:09;99258.00;;;21.31;40.61
15604;BME280;7902;49.042;9.092;2023-06-01T00:12:35;99251.66;;;21.32;40.70
15604;BME280;7902;49.042;9.092;2023-06-01T00:15:01;99256.66;;;21.35;40.72
15604;BME280;7902;49.042;9.092;2023-06-01T00:17:27;99252.59;;;21.39;40.61
15604;BME280;7902;49.042;9.092;2023-06-01T00:19:54;99250.84;;;21.32;40.73
15604;BME280;7902;49.042;9.092;2023-06-01T00:22:20;99253.00;;;21.28;40.77
15604;BME280;7902;49.042;9.092;2023-06-01T00:24:46;99249.22;;;21.23;40.68
15604;BME280;7902;49.042;9.092;2023-06-01T00:27:12;99250.84;;;21.24;40.47
15604;BME280;7902;49.042;9.092;2023-06-01T00:29:38;99255.38;;;21.23;40.86
15604;BME280;7902;49.042;9.092;2023-06-01T00:32:04;99247.72;;;21.20;40.96
15604;BME280;7902;49.042;9.092;2023-06-01T00:34:30;99249.84;;;21.25;40.78
15604;BME280;7902;49.042;9.092;2023-06-01T00:36:56;99255.25;;;21.17;40.86
15604;BME280;7902;49.042;9.092;2023-06-01T00:39:22;99247.00;;;21.26;40.94
15604;BME280;7902;49.042;9.092;2023-06-01T00:41:48;99249.75;;;21.18;40.96
15604;BME280;7902;49.042;9.092;2023-06-01T00:44:14;99240.22;;;21.16;40.55
15604;BME280;7902;49.042;9.092;2023-06-01T00:46:40;99252.72;;;21.23;40.66
15604;BME280;7902;49.042;9.092;2023-06-01T00:49:06;99245.03;;;21.20;40.96
15604;BME280;7902;49.042;9.092;2023-06-01T00:51:32;99239.38;;;21.15;41.23
15604;BME280;7902;49.042;9.092;2023-06-01T00:53:59;99233.88;;;21.17;40.92
15604;BME280;7902;49.042;9.092;2023-06-01T00:56:25;99238.38;;;21.16;41.09
15604;BME280;7902;49.042;9.092;2023-06-01T00:58:52;99239.38;;;21.15;40.97
15604;BME280;7902;49.042;9.092;2023-06-01T01:01:18;99237.41;;;21.09;41.20
15604;BME280;7902;49.042;9.092;2023-06-01T01:03:49;99230.03;;;21.11;41.26
15604;BME280;7902;49.042;9.092;2023-06-01T01:09:07;99228.72;;;21.07;41.15
15604;BME280;7902;49.042;9.092;2023-06-01T01:11:37;99232.59;;;21.05;41.04
15604;BME280;7902;49.042;9.092;2023-06-01T01:14:37;99228.78;;;20.99;41.58
15604;BME280;7902;49.042;9.092;2023-06-01T01:17:11;99226.41;;;21.04;41.56
15604;BME280;7902;49.042;9.092;2023-06-01T01:19:52;99236.25;;;21.03;41.24
15604;BME280;7902;49.042;9.092;2023-06-01T01:24:56;99230.47;;;20.92;41.84
15604;BME280;7902;49.042;9.092;2023-06-01T01:30:10;99228.34;;;20.79;42.05
15604;BME280;7902;49.042;9.092;2023-06-01T01:32:37;99236.38;;;20.79;42.35
15604;BME280;7902;49.042;9.092;2023-06-01T01:35:05;99237.03;;;20.73;42.12
15604;BME280;7902;49.042;9.092;2023-06-01T01:37:32;99231.59;;;20.67;42.58
15604;BME280;7902;49.042;9.092;2023-06-01T01:39:58;99234.25;;;20.67;42.66
15604;BME280;7902;49.042;9.092;2023-06-01T01:42:24;99232.56;;;20.66;42.56
15604;BME280;7902;49.042;9.092;2023-06-01T01:44:50;99233.22;;;20.68;42.59
15604;BME280;7902;49.042;9.092;2023-06-01T01:47:50;99224.91;;;20.63;42.58
15604;BME280;7902;49.042;9.092;2023-06-01T01:50:20;99231.25;;;20.62;42.95
15604;BME280;7902;49.042;9.092;2023-06-01T01:52:47;99231.94;;;20.55;43.01
15604;BME280;7902;49.042;9.092;2023-06-01T01:55:15;99228.94;;;20.50;42.88
15604;BME280;7902;49.042;9.092;2023-06-01T01:57:43;99219.13;;;20.51;43.10
15604;BME280;7902;49.042;9.092;2023-06-01T02:00:10;99226.13;;;20.52;42.69
15604;BME280;7902;49.042;9.092;2023-06-01T02:02:39;99227.63;;;20.46;43.37
15604;BME280;7902;49.042;9.092;2023-06-01T02:05:05;99222.97;;;20.40;42.96
15604;BME280;7902;49.042;9.092;2023-06-01T02:07:31;99221.31;;;20.39;43.03
15604;BME280;7902;49.042;9.092;2023-06-01T02:10:00;99226.81;;;20.38;43.66
15604;BME280;7902;49.042;9.092;2023-06-01T02:12:26;99218.31;;;20.34;43.30
15604;BME280;7902;49.042;9.092;2023-06-01T02:14:52;99214.66;;;20.35;43.43
15604;BME280;7902;49.042;9.092;2023-06-01T02:17:18;99219.97;;;20.27;43.87
15604;BME280;7902;49.042;9.092;2023-06-01T02:19:43;99216.31;;;20.28;43.72
15604;BME280;7902;49.042;9.092;2023-06-01T02:22:10;99217.97;;;20.21;43.68
15604;BME280;7902;49.042;9.092;2023-06-01T02:24:36;99214.66;;;20.19;44.07
15604;BME280;7902;49.042;9.092;2023-06-01T02:27:01;99215.34;;;20.13;44.17
15604;BME280;7902;49.042;9.092;2023-06-01T02:29:28;99216.34;;;20.04;44.17
15604;BME280;7902;49.042;9.092;2023-06-01T02:31:53;99220.84;;;19.95;44.71
15604;BME280;7902;49.042;9.092;2023-06-01T02:34:20;99219.34;;;19.93;44.52
15604;BME280;7902;49.042;9.092;2023-06-01T02:36:46;99219.69;;;19.90;44.68
15604;BME280;7902;49.042;9.092;2023-06-01T02:39:14;99218.69;;;19.91;45.09
15604;BME280;7902;49.042;9.092;2023-06-01T02:41:40;99220.34;;;19.84;44.87
15604;BME280;7902;49.042;9.092;2023-06-01T02:44:06;99223.22;;;19.82;45.00
15604;BME280;7902;49.042;9.092;2023-06-01T02:46:32;99219.19;;;19.78;44.92
15604;BME280;7902;49.042;9.092;2023-06-01T02:48:58;99220.34;;;19.76;45.18
15604;BME280;7902;49.042;9.092;2023-06-01T02:51:24;99219.53;;;19.75;44.77
15604;BME280;7902;49.042;9.092;2023-06-01T02:53:50;99219.69;;;19.73;45.39
15604;BME280;7902;49.042;9.092;2023-06-01T02:56:17;99219.19;;;19.70;45.45
15604;BME280;7902;49.042;9.092;2023-06-01T02:58:43;99219.19;;;19.70;44.93
15604;BME280;7902;49.042;9.092;2023-06-01T03:01:09;99214.69;;;19.70;45.84
15604;BME280;7902;49.042;9.092;2023-06-01T03:03:38;99220.38;;;19.67;45.26
15604;BME280;7902;49.042;9.092;2023-06-01T03:06:04;99224.50;;;19.70;45.07
15604;BME280;7902;49.042;9.092;2023-06-01T03:08:32;99226.84;;;19.65;45.17
15604;BME280;7902;49.042;9.092;2023-06-01T03:10:58;99217.03;;;19.65;45.58
15604;BME280;7902;49.042;9.092;2023-06-01T03:13:24;99216.34;;;19.63;45.09
15604;BME280;7902;49.042;9.092;2023-06-01T03:15:50;99220.88;;;19.63;45.30
15604;BME280;7902;49.042;9.092;2023-06-01T03:18:16;99218.69;;;19.58;45.22
15604;BME280;7902;49.042;9.092;2023-06-01T03:20:42;99218.03;;;19.56;45.83
15604;BME280;7902;49.042;9.092;2023-06-01T03:23:08;99218.19;;;19.55;45.74
15604;BME280;7902;49.042;9.092;2023-06-01T03:25:34;99213.53;;;19.57;45.27
15604;BME280;7902;49.042;9.092;2023-06-01T03:28:00;99222.00;;;19.52;45.86
15604;BME280;7902;49.042;9.092;2023-06-01T03:30:26;99221.19;;;19.52;45.54
15604;BME280;7902;49.042;9.092;2023-06-01T03:32:52;99224.34;;;19.47;45.70
15604;BME280;7902;49.042;9.092;2023-06-01T03:35:18;99218.19;;;19.47;45.84
15604;BME280;7902;49.042;9.092;2023-06-01T03:37:44;99216.50;;;19.46;45.62
15604;BME280;7902;49.042;9.092;2023-06-01T03:40:11;99220.63;;;19.40;45.59
15604;BME280;7902;49.042;9.092;2023-06-01T03:42:41;99218.50;;;19.44;46.27
15604;BME280;7902;49.042;9.092;2023-06-01T03:45:08;99221.00;;;19.45;45.95
15604;BME280;7902;49.042;9.092;2023-06-01T03:47:35;99219.34;;;19.44;45.61
15604;BME280;7902;49.042;9.092;2023-06-01T03:50:02;99226.50;;;19.44;45.80
15604;BME280;7902;49.042;9.092;2023-06-01T03:52:29;99226.13;;;19.39;45.88
15604;BME280;7902;49.042;9.092;2023-06-01T03:54:57;99225.78;;;19.42;45.59
15604;BME280;7902;49.042;9.092;2023-06-01T03:57:23;99227.97;;;19.38;46.03
15604;BME280;7902;49.042;9.092;2023-06-01T03:59:49;99230.97;;;19.35;45.95
15604;BME280;7902;49.042;9.092;2023-06-01T04:02:17;99231.13;;;19.42;45.93
15604;BME280;7902;49.042;9.092;2023-06-01T04:04:44;99230.97;;;19.35;46.31
15604;BME280;7902;49.042;9.092;2023-06-01T04:07:12;99226.44;;;19.36;46.20
15604;BME280;7902;49.042;9.092;2023-06-01T04:09:40;99232.09;;;19.33;46.79
15604;BME280;7902;49.042;9.092;2023-06-01T04:12:06;99233.44;;;19.28;46.79
15604;BME280;7902;49.042;9.092;2023-06-01T04:14:32;99232.09;;;19.33;46.44
15604;BME280;7902;49.042;9.092;2023-06-01T04:16:58;99238.25;;;19.33;46.52
15604;BME280;7902;49.042;9.092;2023-06-01T04:19:24;99241.28;;;19.38;46.20
15604;BME280;7902;49.042;9.092;2023-06-01T04:21:50;99235.94;;;19.38;46.53
15604;BME280;7902;49.042;9.092;2023-06-01T04:24:16;99241.59;;;19.35;47.12
15604;BME280;7902;49.042;9.092;2023-06-01T04:26:42;99234.91;;;19.31;46.77
15604;BME280;7902;49.042;9.092;2023-06-01T04:29:08;99236.94;;;19.29;46.61
15604;BME280;7902;49.042;9.092;2023-06-01T04:31:38;99247.75;;;19.36;46.55
15604;BME280;7902;49.042;9.092;2023-06-01T04:34:04;99251.25;;;19.36;46.72
15604;BME280;7902;49.042;9.092;2023-06-01T04:36:34;99249.09;;;19.40;46.84
15604;BME280;7902;49.042;9.092;2023-06-01T04:39:05;99248.91;;;19.41;45.95
15604;BME280;7902;49.042;9.092;2023-06-01T04:41:34;99253.59;;;19.39;46.56
15604;BME280;7902;49.042;9.092;2023-06-01T04:44:03;99245.59;;;19.39;46.99
15604;BME280;7902;49.042;9.092;2023-06-01T04:46:32;99255.78;;;19.44;46.38
15604;BME280;7902;49.042;9.092;2023-06-01T04:48:58;99252.94;;;19.45;46.47
15604;BME280;7902;49.042;9.092;2023-06-01T04:51:26;99242.28;;;19.45;46.55
15604;BME280;7902;49.042;9.092;2023-06-01T04:53:53;99248.31;;;19.47;46.43
15604;BME280;7902;49.042;9.092;2023-06-01T04:56:23;99243.63;;;19.49;46.30
15604;BME280;7902;49.042;9.092;2023-06-01T04:58:51;99254.47;;;19.48;46.75
15604;BME280;7902;49.042;9.092;2023-06-01T05:01:17;99251.31;;;19.52;46.09
15604;BME280;7902;49.042;9.092;2023-06-01T05:03:44;99246.28;;;19.49;46.80
15604;BME280;7902;49.042;9.092;2023-06-01T05:06:12;99253.63;;;19.55;46.66
15604;BME280;7902;49.042;9.092;2023-06-01T05:08:41;99254.97;;;19.59;46.66
15604;BME280;7902;49.042;9.092;2023-06-01T05:11:08;99258.97;;;19.63;46.26
15604;BME280;7902;49.042;9.092;2023-06-01T05:13:35;99255.16;;;19.66;46.87
15604;BME280;7902;49.042;9.092;2023-06-01T05:16:06;99261.31;;;19.58;46.89
15604;BME280;7902;49.042;9.092;2023-06-01T05:18:33;99260.00;;;19.62;46.08
15604;BME280;7902;49.042;9.092;2023-06-01T05:21:00;99266.47;;;19.60;46.76
15604;BME280;7902;49.042;9.092;2023-06-01T05:23:26;99260.66;;;19.73;46.76
15604;BME280;7902;49.042;9.092;2023-06-01T05:25:53;99263.66;;;19.69;46.29
15604;BME280;7902;49.042;9.092;2023-06-01T05:28:25;99261.81;;;19.78;46.35
15604;BME280;7902;49.042;9.092;2023-06-01T05:30:51;99268.81;;;19.79;46.69
15604;BME280;7902;49.042;9.092;2023-06-01T05:33:17;99259.19;;;19.86;46.57
15604;BME280;7902;49.042;9.092;2023-06-01T05:35:43;99262.00;;;19.85;45.95
15604;BME280;7902;49.042;9.092;2023-06-01T05:38:08;99269.34;;;19.91;46.19
15604;BME280;7902;49.042;9.092;2023-06-01T05:40:34;99270.00;;;20.01;46.15
15604;BME280;7902;49.042;9.092;2023-06-01T05:43:01;99259.00;;;20.04;45.68
15604;BME280;7902;49.042;9.092;2023-06-01T05:45:27;99263.97;;;20.07;46.13
15604;BME280;7902;49.042;9.092;2023-06-01T05:47:54;99261.97;;;20.17;46.20
15604;BME280;7902;49.042;9.092;2023-06-01T05:50:20;99269.97;;;20.17;45.90
15604;BME280;7902;49.042;9.092;2023-06-01T05:52:46;99261.47;;;20.30;45.78
15604;BME280;7902;49.042;9.092;2023-06-01T05:55:12;99263.63;;;20.26;45.57
15604;BME280;7902;49.042;9.092;2023-06-01T05:57:39;99260.31;;;20.40;45.25
15604;BME280;7902;49.042;9.092;2023-06-01T06:00:06;99260.66;;;20.37;45.98
15604;BME280;7902;49.042;9.092;2023-06-01T06:02:36;99258.66;;;20.39;45.51
15604;BME280;7902;49.042;9.092;2023-06-01T06:05:02;99255.13;;;20.39;45.84
15604;BME280;7902;49.042;9.092;2023-06-01T06:07:29;99260.25;;;20.65;45.25
15604;BME280;7902;49.042;9.092;2023-06-01T06:09:55;99258.75;;;20.70;45.66
15604;BME280;7902;49.042;9.092;2023-06-01T06:12:21;99270.25;;;20.63;45.72
15604;BME280;7902;49.042;9.092;2023-06-01T06:14:47;99260.94;;;20.67;46.18
15604;BME280;7902;49.042;9.092;2023-06-01T06:17:14;99260.53;;;20.78;45.27
15604;BME280;7902;49.042;9.092;2023-06-01T06:19:40;99259.03;;;20.83;45.74
15604;BME280;7902;49.042;9.092;2023-06-01T06:22:09;99263.50;;;20.91;45.82
15604;BME280;7902;49.042;9.092;2023-06-01T06:24:35;99256.81;;;20.95;45.46
15604;BME280;7902;49.042;9.092;2023-06-01T06:27:01;99256.16;;;20.93;45.78
15604;BME280;7902;49.042;9.092;2023-06-01T06:29:28;99254.44;;;21.08;44.72
15604;BME280;7902;49.042;9.092;2023-06-01T06:31:54;99256.09;;;21.09;45.15
15604;BME280;7902;49.042;9.092;2023-06-01T06:34:20;99258.09;;;21.15;45.30
15604;BME280;7902;49.042;9.092;2023-06-01T06:36:46;99247.38;;;21.23;45.22
15604;BME280;7902;49.042;9.092;2023-06-01T06:39:12;99252.88;;;21.22;44.94
15604;BME280;7902;49.042;9.092;2023-06-01T06:41:41;99256.38;;;21.22;44.84
15604;BME280;7902;49.042;9.092;2023-06-01T06:44:07;99263.50;;;21.30;45.19
15604;BME280;7902;49.042;9.092;2023-06-01T06:46:34;99262.94;;;21.42;44.77
15604;BME280;7902;49.042;9.092;2023-06-01T06:49:00;99264.50;;;21.37;44.88
15604;BME280;7902;49.042;9.092;2023-06-01T06:51:26;99261.28;;;21.41;44.69
15604;BME280;7902;49.042;9.092;2023-06-01T06:53:52;99259.22;;;21.52;44.53
15604;BME280;7902;49.042;9.092;2023-06-01T06:56:18;99260.84;;;21.61;44.40
15604;BME280;7902;49.042;9.092;2023-06-01T06:58:44;99258.72;;;21.71;44.17
15604;BME280;7902;49.042;9.092;2023-06-01T07:01:10;99256.72;;;21.73;43.82
15604;BME280;7902;49.042;9.092;2023-06-01T07:03:36;99260.06;;;21.75;44.27
15604;BME280;7902;49.042;9.092;2023-06-01T07:06:04;99253.38;;;21.71;44.69
15604;BME280;7902;49.042;9.092;2023-06-01T07:08:30;99262.69;;;21.60;45.09
15604;BME280;7902;49.042;9.092;2023-06-01T07:11:00;99253.38;;;21.71;44.53
15604;BME280;7902;49.042;9.092;2023-06-01T07:13:26;99265.03;;;21.78;44.94
15604;BME280;7902;49.042;9.092;2023-06-01T07:15:53;99257.31;;;21.83;44.55
15604;BME280;7902;49.042;9.092;2023-06-01T07:18:19;99255.66;;;21.82;45.31
15604;BME280;7902;49.042;9.092;2023-06-01T07:20:45;99259.28;;;21.89;45.15
15604;BME280;7902;49.042;9.092;2023-06-01T07:23:11;99260.00;;;21.83;45.64
15604;BME280;7902;49.042;9.092;2023-06-01T07:25:38;99259.25;;;21.97;45.55
15604;BME280;7902;49.042;9.092;2023-06-01T07:28:04;99257.16;;;22.07;44.79
15604;BME280;7902;49.042;9.092;2023-06-01T07:30:34;99250.59;;;22.10;45.30
15604;BME280;7902;49.042;9.092;2023-06-01T07:33:00;99260.41;;;22.17;45.24
15604;BME280;7902;49.042;9.092;2023-06-01T07:35:27;99248.69;;;22.18;44.95
15604;BME280;7902;49.042;9.092;2023-06-01T07:37:52;99255.25;;;22.16;44.92
15604;BME280;7902;49.042;9.092;2023-06-01T07:40:18;99244.41;;;22.09;45.59
15604;BME280;7902;49.042;9.092;2023-06-01T07:42:44;99248.34;;;22.21;45.65
15604;BME280;7902;49.042;9.092;2023-06-01T07:45:10;99250.34;;;22.19;45.90
15604;BME280;7902;49.042;9.092;2023-06-01T07:47:36;99251.59;;;22.31;45.41
15604;BME280;7902;49.042;9.092;2023-06-01T07:50:03;99251.38;;;22.33;45.27
15604;BME280;7902;49.042;9.092;2023-06-01T07:52:29;99251.72;;;22.15;45.12
15604;BME280;7902;49.042;9.092;2023-06-01T07:54:55;99251.84;;;22.37;44.64
15604;BME280;7902;49.042;9.092;2023-06-01T07:57:21;99243.09;;;22.43;44.51
15604;BME280;7902;49.042;9.092;2023-06-01T07:59:47;99249.56;;;22.48;44.83
15604;BME280;7902;49.042;9.092;2023-06-01T08:02:13;99245.13;;;22.41;44.51
15604;BME280;7902;49.042;9.092;2023-06-01T08:04:39;99251.69;;;22.53;43.53
15604;BME280;7902;49.042;9.092;2023-06-01T08:07:05;99247.16;;;22.53;43.03
15604;BME280;7902;49.042;9.092;2023-06-01T08:09:33;99245.78;;;22.43;44.47
15604;BME280;7902;49.042;9.092;2023-06-01T08:11:59;99245.22;;;22.47;44.84
15604;BME280;7902;49.042;9.092;2023-06-01T08:14:25;99245.69;;;22.51;43.68
15604;BME280;7902;49.042;9.092;2023-06-01T08:16:51;99236.63;;;22.52;43.62
15604;BME280;7902;49.042;9.092;2023-06-01T08:19:17;99233.06;;;22.59;42.87
15604;BME280;7902;49.042;9.092;2023-06-01T08:21:44;99237.03;;;22.49;43.60
15604;BME280;7902;49.042;9.092;2023-06-01T08:24:11;99236.56;;;22.60;42.68
15604;BME280;7902;49.042;9.092;2023-06-01T08:26:40;99236.81;;;22.65;42.83
15604;BME280;7902;49.042;9.092;2023-06-01T08:29:06;99236.38;;;22.61;43.88
15604;BME280;7902;49.042;9.092;2023-06-01T08:31:32;99229.28;;;22.68;43.32
15604;BME280;7902;49.042;9.092;2023-06-01T08:33:58;99234.13;;;22.65;43.31
15604;BME280;7902;49.042;9.092;2023-06-01T08:36:24;99232.88;;;22.75;42.76
15604;BME280;7902;49.042;9.092;2023-06-01T08:38:54;99231.97;;;22.83;42.28
15604;BME280;7902;49.042;9.092;2023-06-01T08:41:45;99228.63;;;22.81;43.32
15604;BME280;7902;49.042;9.092;2023-06-01T08:44:18;99224.00;;;22.90;42.70
15604;BME280;7902;49.042;9.092;2023-06-01T08:46:47;99225.97;;;22.81;43.26
15604;BME280;7902;49.042;9.092;2023-06-01T08:49:13;99216.34;;;22.87;42.92
15604;BME280;7902;49.042;9.092;2023-06-01T08:51:42;99223.44;;;22.94;42.08
15604;BME280;7902;49.042;9.092;2023-06-01T08:54:09;99219.75;;;22.95;42.11
15604;BME280;7902;49.042;9.092;2023-06-01T08:56:36;99214.41;;;22.95;42.27
15604;BME280;7902;49.042;9.092;2023-06-01T08:59:02;99211.59;;;23.03;42.34
15604;BME280;7902;49.042;9.092;2023-06-01T09:01:29;99216.41;;;23.08;42.72
15604;BME280;7902;49.042;9.092;2023-06-01T09:03:55;99217.06;;;23.10;42.08
15604;BME280;7902;49.042;9.092;2023-06-01T09:06:21;99219.28;;;23.06;42.85
15604;BME280;7902;49.042;9.092;2023-06-01T09:08:47;99215.84;;;23.12;42.13
15604;BME280;7902;49.042;9.092;2023-06-01T09:11:13;99220.97;;;23.29;42.07
15604;BME280;7902;49.042;9.092;2023-06-01T09:13:40;99210.25;;;23.29;42.77
15604;BME280;7902;49.042;9.092;2023-06-01T09:16:06;99209.50;;;23.35;41.83
15604;BME280;7902;49.042;9.092;2023-06-01T09:18:33;99214.47;;;23.38;42.21
15604;BME280;7902;49.042;9.092;2023-06-01T09:21:12;99209.88;;;23.32;41.60
15604;BME280;7902;49.042;9.092;2023-06-01T09:23:38;99210.41;;;23.42;41.60
15604;BME280;7902;49.042;9.092;2023-06-01T09:26:11;99208.09;;;23.39;41.78
15604;BME280;7902;49.042;9.092;2023-06-01T09:28:55;99211.69;;;23.46;41.64
15604;BME280;7902;49.042;9.092;2023-06-01T09:31:43;99206.41;;;23.52;41.56
15604;BME280;7902;49.042;9.092;2023-06-01T09:34:14;99203.78;;;23.59;41.57
15604;BME280;7902;49.042;9.092;2023-06-01T09:36:52;99200.34;;;23.65;41.49
15604;BME280;7902;49.042;9.092;2023-06-01T09:39:21;99207.38;;;23.66;40.85
15604;BME280;7902;49.042;9.092;2023-06-01T09:41:52;99207.75;;;23.63;41.75
15604;BME280;7902;49.042;9.092;2023-06-01T09:44:29;99206.09;;;23.62;41.31
15604;BME280;7902;49.042;9.092;2023-06-01T09:46:58;99198.69;;;23.64;41.07
15604;BME280;7902;49.042;9.092;2023-06-01T09:49:26;99197.66;;;23.65;41.33
15604;BME280;7902;49.042;9.092;2023-06-01T09:54:37;99187.19;;;23.70;41.37
15604;BME280;7902;49.042;9.092;2023-06-01T09:57:04;99190.53;;;23.72;41.59
15604;BME280;7902;49.042;9.092;2023-06-01T09:59:46;99185.16;;;23.72;41.53
15604;BME280;7902;49.042;9.092;2023-06-01T10:02:14;99188.97;;;23.84;41.35
15604;BME280;7902;49.042;9.092;2023-06-01T10:04:44;99178.91;;;23.93;41.05
15604;BME280;7902;49.042;9.092;2023-06-01T10:07:12;99177.84;;;23.87;41.78
15604;BME280;7902;49.042;9.092;2023-06-01T10:09:41;99179.13;;;23.91;41.66
15604;BME280;7902;49.042;9.092;2023-06-01T10:12:07;99174.78;;;23.90;41.28
15604;BME280;7902;49.042;9.092;2023-06-01T10:14:37;99173.13;;;23.89;41.41
15604;BME280;7902;49.042;9.092;2023-06-01T10:17:06;99169.25;;;23.92;41.22
15604;BME280;7902;49.042;9.092;2023-06-01T10:19:32;99163.47;;;23.95;41.19
15604;BME280;7902;49.042;9.092;2023-06-01T10:21:58;99168.25;;;23.99;40.93
15604;BME280;7902;49.042;9.092;2023-06-01T10:24:25;99168.84;;;23.95;41.57
15604;BME280;7902;49.042;9.092;2023-06-01T10:27:13;99158.72;;;23.97;41.25
15604;BME280;7902;49.042;9.092;2023-06-01T10:29:41;99163.28;;;23.96;41.32
15604;BME280;7902;49.042;9.092;2023-06-01T10:32:41;99155.69;;;24.00;41.56
15604;BME280;7902;49.042;9.092;2023-06-01T10:35:08;99157.13;;;24.02;41.14
15604;BME280;7902;49.042;9.092;2023-06-01T10:37:36;99151.56;;;24.04;41.18
15604;BME280;7902;49.042;9.092;2023-06-01T10:42:40;99152.00;;;24.08;41.25
15604;BME280;7902;49.042;9.092;2023-06-01T10:45:06;99141.69;;;24.04;41.16
15604;BME280;7902;49.042;9.092;2023-06-01T10:54:52;99141.00;;;24.24;40.94
15604;BME280;7902;49.042;9.092;2023-06-01T10:57:19;99147.38;;;24.23;40.73
15604;BME280;7902;49.042;9.092;2023-06-01T11:03:03;99141.00;;;24.24;40.84
15604;BME280;7902;49.042;9.092;2023-06-01T11:05:40;99138.19;;;24.38;40.70
15604;BME280;7902;49.042;9.092;2023-06-01T11:13:20;99133.72;;;24.52;40.30
15604;BME280;7902;49.042;9.092;2023-06-01T11:19:00;99131.50;;;24.62;39.94
15604;BME280;7902;49.042;9.092;2023-06-01T11:23:57;99133.78;;;24.65;39.68
15604;BME280;7902;49.042;9.092;2023-06-01T11:26:28;99130.53;;;24.76;39.45
15604;BME280;7902;49.042;9.092;2023-06-01T11:29:22;99125.66;;;25.00;38.91
15604;BME280;7902;49.042;9.092;2023-06-01T11:31:52;99124.38;;;24.89;39.97
15604;BME280;7902;49.042;9.092;2023-06-01T11:34:19;99121.25;;;24.85;39.65
15604;BME280;7902;49.042;9.092;2023-06-01T11:36:52;99124.63;;;24.94;39.55
15604;BME280;7902;49.042;9.092;2023-06-01T11:39:21;99115.25;;;24.83;39.93
15604;BME280;7902;49.042;9.092;2023-06-01T11:41:49;99111.16;;;24.87;39.64
15604;BME280;7902;49.042;9.092;2023-06-01T11:44:15;99116.94;;;24.91;39.56
15604;BME280;7902;49.042;9.092;2023-06-01T11:46:50;99117.94;;;24.83;39.96
15604;BME280;7902;49.042;9.092;2023-06-01T11:49:16;99120.81;;;24.82;39.99
15604;BME280;7902;49.042;9.092;2023-06-01T11:51:42;99109.56;;;25.13;38.10
15604;BME280;7902;49.042;9.092;2023-06-01T11:54:08;99108.94;;;25.24;37.57
15604;BME280;7902;49.042;9.092;2023-06-01T11:56:35;99093.03;;;25.29;38.59
15604;BME280;7902;49.042;9.092;2023-06-01T11:59:03;99097.78;;;25.14;39.49
15604;BME280;7902;49.042;9.092;2023-06-01T12:01:44;99094.25;;;25.20;39.23
15604;BME280;7902;49.042;9.092;2023-06-01T12:04:14;99093.84;;;25.10;39.66
15604;BME280;7902;49.042;9.092;2023-06-01T12:06:41;99091.75;;;25.05;39.66
15604;BME280;7902;49.042;9.092;2023-06-01T12:09:07;99092.59;;;25.06;39.73
15604;BME280;7902;49.042;9.092;2023-06-01T12:11:34;99082.69;;;25.00;39.88
15604;BME280;7902;49.042;9.092;2023-06-01T12:14:00;99083.91;;;25.10;39.56
15604;BME280;7902;49.042;9.092;2023-06-01T12:16:52;99082.50;;;25.14;39.35
15604;BME280;7902;49.042;9.092;2023-06-01T12:19:18;99074.22;;;25.16;39.79
15604;BME280;7902;49.042;9.092;2023-06-01T12:21:51;99071.13;;;25.32;38.34
15604;BME280;7902;49.042;9.092;2023-06-01T12:24:18;99074.03;;;25.37;39.01
15604;BME280;7902;49.042;9.092;2023-06-01T12:26:52;99065.31;;;25.28;39.08
15604;BME280;7902;49.042;9.092;2023-06-01T12:32:04;99062.84;;;25.33;39.00
15604;BME280;7902;49.042;9.092;2023-06-01T12:34:30;99064.53;;;25.28;39.83
15604;BME280;7902;49.042;9.092;2023-06-01T12:36:56;99065.13;;;25.30;39.59
15604;BME280;7902;49.042;9.092;2023-06-01T12:39:32;99055.00;;;25.25;40.18
15604;BME280;7902;49.042;9.092;2023-06-01T12:42:03;99052.94;;;25.27;39.24
15604;BME280;7902;49.042;9.092;2023-06-01T12:44:31;99058.09;;;25.49;39.28
15604;BME280;7902;49.042;9.092;2023-06-01T12:46:59;99047.97;;;25.64;38.90
15604;BME280;7902;49.042;9.092;2023-06-01T12:49:26;99054.00;;;25.66;37.69
15604;BME280;7902;49.042;9.092;2023-06-01T12:51:53;99051.50;;;25.64;39.09
15604;BME280;7902;49.042;9.092;2023-06-01T12:54:19;99046.53;;;25.74;39.30
15604;BME280;7902;49.042;9.092;2023-06-01T12:56:49;99052.63;;;26.14;38.14
15604;BME280;7902;49.042;9.092;2023-06-01T12:59:15;99047.09;;;26.03;37.88
15604;BME280;7902;49.042;9.092;2023-06-01T13:01:41;99046.66;;;25.99;38.60
15604;BME280;7902;49.042;9.092;2023-06-01T13:04:06;99036.38;;;25.90;37.86
15604;BME280;7902;49.042;9.092;2023-06-01T13:06:33;99042.16;;;25.87;38.67
15604;BME280;7902;49.042;9.092;2023-06-01T13:09:03;99040.91;;;25.83;38.56
15604;BME280;7902;49.042;9.092;2023-06-01T13:11:29;99037.78;;;25.99;38.64
15604;BME280;7902;49.042;9.092;2023-06-01T13:13:55;99030.78;;;25.85;38.93
15604;BME280;7902;49.042;9.092;2023-06-01T13:16:23;99033.44;;;25.91;38.62
15604;BME280;7902;49.042;9.092;2023-06-01T13:18:48;99031.56;;;25.98;38.59
15604;BME280;7902;49.042;9.092;2023-06-01T13:21:17;99028.41;;;26.65;38.17
15604;BME280;7902;49.042;9.092;2023-06-01T13:23:43;99035.97;;;26.44;38.01
15604;BME280;7902;49.042;9.092;2023-06-01T13:26:10;99040.63;;;26.24;38.05
15604;BME280;7902;49.042;9.092;2023-06-01T13:28:36;99032.94;;;26.14;38.71
15604;BME280;7902;49.042;9.092;2023-06-01T13:31:02;99036.47;;;26.14;38.25
15604;BME280;7902;49.042;9.092;2023-06-01T13:33:29;99026.59;;;26.53;37.17
15604;BME280;7902;49.042;9.092;2023-06-01T13:35:55;99033.31;;;26.37;38.05
15604;BME280;7902;49.042;9.092;2023-06-01T13:38:21;99037.91;;;26.24;38.83
15604;BME280;7902;49.042;9.092;2023-06-01T13:40:47;99024.19;;;26.38;38.48
15604;BME280;7902;49.042;9.092;2023-06-01T13:43:12;99024.94;;;26.52;38.08
15604;BME280;7902;49.042;9.092;2023-06-01T13:45:38;99020.19;;;26.54;38.09
15604;BME280;7902;49.042;9.092;2023-06-01T13:48:04;99009.03;;;27.38;34.85
15604;BME280;7902;49.042;9.092;2023-06-01T13:50:30;99004.72;;;27.12;37.01